createdAt,value
2022-11-05T00:00:29.966Z,100075.25
2022-11-05T00:03:16.085Z,100076.94
2022-11-05T00:06:02.946Z,100077.16
2022-11-05T00:08:50.250Z,100080.78
2022-11-05T00:11:18.686Z,100085.34
2022-11-05T00:14:04.843Z,100086.44
2022-11-05T00:16:45.299Z,100087.41
2022-11-05T00:19:14.958Z,100098.28
2022-11-05T00:22:00.691Z,100098.88
2022-11-05T00:24:47.865Z,100102.41
2022-11-05T00:27:16.068Z,100103.00
2022-11-05T00:29:44.691Z,100098.94
2022-11-05T00:32:13.101Z,100108.41
2022-11-05T00:34:41.322Z,100112.66
2022-11-05T00:37:09.706Z,100109.88
2022-11-05T00:39:39.302Z,100115.19
2022-11-05T00:42:24.994Z,100116.75
2022-11-05T00:45:02.551Z,100115.91
2022-11-05T00:47:50.231Z,100124.38
2022-11-05T00:50:19.334Z,100121.72
2022-11-05T00:52:56.921Z,100128.63
2022-11-05T00:55:33.423Z,100134.06
2022-11-05T00:58:03.339Z,100140.34
2022-11-05T01:00:35.003Z,100137.69
2022-11-05T01:03:05.701Z,100138.59
2022-11-05T01:05:35.578Z,100139.38
2022-11-05T01:08:03.891Z,100139.13
2022-11-05T01:10:33.570Z,100135.75
2022-11-05T01:13:01.997Z,100139.50
2022-11-05T01:15:30.265Z,100142.88
2022-11-05T01:17:58.701Z,100140.78
2022-11-05T01:20:27.978Z,100146.72
2022-11-05T01:22:56.375Z,100144.75
2022-11-05T01:25:25.593Z,100147.91
2022-11-05T01:27:55.515Z,100154.72
2022-11-05T01:30:23.752Z,100158.00
2022-11-05T01:32:51.934Z,100164.56
2022-11-05T01:35:20.601Z,100160.31
2022-11-05T01:37:49.001Z,100167.59
2022-11-05T01:40:19.798Z,100170.50
2022-11-05T01:42:48.722Z,100170.88
2022-11-05T01:45:21.493Z,100169.66
2022-11-05T01:48:02.345Z,100179.97
2022-11-05T01:50:48.380Z,100177.38
2022-11-05T01:53:24.042Z,100180.06
2022-11-05T01:55:57.864Z,100185.66
2022-11-05T01:58:33.099Z,100186.28
2022-11-05T02:01:02.811Z,100186.75
2022-11-05T02:03:32.020Z,100191.41
2022-11-05T02:06:03.222Z,100184.09
2022-11-05T02:08:43.615Z,100188.88
2022-11-05T02:11:14.537Z,100186.34
2022-11-05T02:13:43.022Z,100196.00
2022-11-05T02:16:19.288Z,100197.63
2022-11-05T02:18:59.340Z,100200.00
2022-11-05T02:22:07.948Z,100207.59
2022-11-05T02:24:57.965Z,100204.16
2022-11-05T02:27:59.579Z,100208.84
2022-11-05T02:30:41.778Z,100212.25
2022-11-05T02:33:42.903Z,100209.09
2022-11-05T02:36:25.416Z,100210.66
2022-11-05T02:39:07.830Z,100213.56
2022-11-05T02:41:44.369Z,100209.34
2022-11-05T02:44:23.797Z,100212.75
2022-11-05T02:46:59.555Z,100210.34
2022-11-05T02:49:40.204Z,100211.81
2022-11-05T02:52:16.590Z,100218.28
2022-11-05T02:54:51.565Z,100215.75
2022-11-05T02:57:22.230Z,100214.34
2022-11-05T03:00:00.820Z,100218.81
2022-11-05T03:02:30.741Z,100209.16
2022-11-05T03:04:59.918Z,100221.53
2022-11-05T03:07:43.641Z,100225.38
2022-11-05T03:10:38.862Z,100225.84
2022-11-05T03:13:15.817Z,100232.09
2022-11-05T03:15:52.417Z,100231.94
2022-11-05T03:18:28.562Z,100231.78
2022-11-05T03:21:02.682Z,100238.13
2022-11-05T03:23:37.377Z,100244.56
2022-11-05T03:26:11.056Z,100249.56
2022-11-05T03:28:44.096Z,100265.34
2022-11-05T03:31:15.324Z,100253.97
2022-11-05T03:33:46.617Z,100266.66
2022-11-05T03:36:20.800Z,100263.28
2022-11-05T03:38:54.392Z,100271.81
2022-11-05T03:41:25.967Z,100276.25
2022-11-05T03:44:00.312Z,100271.94
2022-11-05T03:46:33.692Z,100271.81
2022-11-05T03:49:05.483Z,100279.25
2022-11-05T03:51:44.167Z,100276.47
2022-11-05T03:54:12.607Z,100279.06
2022-11-05T03:56:48.202Z,100281.19
2022-11-05T03:59:18.111Z,100274.28
2022-11-05T04:01:46.784Z,100280.34
2022-11-05T04:04:16.803Z,100273.50
2022-11-05T04:07:02.489Z,100289.47
2022-11-05T04:09:48.261Z,100290.09
2022-11-05T04:12:34.114Z,100288.75
2022-11-05T04:15:02.856Z,100295.22
2022-11-05T04:17:30.204Z,100301.59
2022-11-05T04:20:17.231Z,100299.88
2022-11-05T04:23:03.214Z,100302.91
2022-11-05T04:25:31.455Z,100303.53
2022-11-05T04:28:01.226Z,100304.59
2022-11-05T04:30:28.488Z,100309.59
2022-11-05T04:32:58.614Z,100313.12
2022-11-05T04:35:30.328Z,100314.31
2022-11-05T04:37:58.489Z,100323.56
2022-11-05T04:40:26.998Z,100327.81
2022-11-05T04:42:56.229Z,100320.47
2022-11-05T04:45:25.518Z,100326.03
2022-11-05T04:47:54.317Z,100319.13
2022-11-05T04:50:23.192Z,100326.25
2022-11-05T04:52:53.044Z,100323.38
2022-11-05T04:55:22.043Z,100319.78
2022-11-05T04:57:50.960Z,100327.22
2022-11-05T05:00:20.747Z,100332.53
2022-11-05T05:02:50.048Z,100334.22
2022-11-05T05:05:18.639Z,100329.00
2022-11-05T05:07:46.820Z,100331.91
2022-11-05T05:10:16.670Z,100338.47
2022-11-05T05:12:44.898Z,100341.13
2022-11-05T05:15:13.296Z,100341.47
2022-11-05T05:17:41.757Z,100345.37
2022-11-05T05:20:27.937Z,100346.75
2022-11-05T05:22:56.551Z,100359.50
2022-11-05T05:25:26.164Z,100362.56
2022-11-05T05:27:57.304Z,100367.53
2022-11-05T05:30:26.332Z,100361.25
2022-11-05T05:32:54.612Z,100366.44
2022-11-05T05:35:22.886Z,100369.47
2022-11-05T05:37:55.994Z,100377.72
2022-11-05T05:40:24.171Z,100364.78
2022-11-05T05:42:55.997Z,100374.84
2022-11-05T05:45:24.186Z,100383.41
2022-11-05T05:47:52.636Z,100383.81
2022-11-05T05:50:20.943Z,100384.97
2022-11-05T05:52:53.319Z,100386.31
2022-11-05T05:55:21.883Z,100394.66
2022-11-05T05:57:49.996Z,100392.41
2022-11-05T06:00:19.745Z,100413.06
2022-11-05T06:02:48.399Z,100413.44
2022-11-05T06:05:16.902Z,100417.22
2022-11-05T06:07:45.325Z,100421.19
2022-11-05T06:10:14.534Z,100416.84
2022-11-05T06:12:42.783Z,100421.50
2022-11-05T06:15:11.669Z,100422.56
2022-11-05T06:17:45.360Z,100415.59
2022-11-05T06:20:14.383Z,100429.81
2022-11-05T06:23:02.110Z,100426.72
2022-11-05T06:25:31.017Z,100433.87
2022-11-05T06:28:06.992Z,100431.53
2022-11-05T06:30:35.482Z,100436.94
2022-11-05T06:33:06.481Z,100433.53
2022-11-05T06:35:34.690Z,100429.34
2022-11-05T06:38:03.433Z,100437.37
2022-11-05T06:40:31.826Z,100438.34
2022-11-05T06:43:00.027Z,100444.59
2022-11-05T06:45:28.592Z,100447.34
2022-11-05T06:47:57.996Z,100459.75
2022-11-05T06:50:29.143Z,100467.69
2022-11-05T06:52:59.398Z,100472.25
2022-11-05T06:55:29.406Z,100485.41
2022-11-05T06:57:58.509Z,100484.47
2022-11-05T07:00:27.116Z,100486.06
2022-11-05T07:02:56.982Z,100495.81
2022-11-05T07:05:27.041Z,100496.56
2022-11-05T07:07:55.183Z,100497.16
2022-11-05T07:10:23.434Z,100507.59
2022-11-05T07:12:51.881Z,100509.19
2022-11-05T07:15:20.138Z,100509.03
2022-11-05T07:17:48.852Z,100517.66
2022-11-05T07:20:17.713Z,100518.31
2022-11-05T07:22:47.384Z,100513.50
2022-11-05T07:25:15.628Z,100521.75
2022-11-05T07:27:44.724Z,100520.44
2022-11-05T07:30:13.521Z,100527.75
2022-11-05T07:32:42.428Z,100528.22
2022-11-05T07:35:11.276Z,100526.16
2022-11-05T07:37:44.537Z,100534.50
2022-11-05T07:40:16.192Z,100537.50
2022-11-05T07:42:45.266Z,100530.78
2022-11-05T07:45:14.498Z,100543.56
2022-11-05T07:47:47.237Z,100541.19
2022-11-05T07:50:16.764Z,100544.22
2022-11-05T07:52:45.493Z,100549.72
2022-11-05T07:55:15.211Z,100546.72
2022-11-05T07:57:44.120Z,100558.25
2022-11-05T08:00:15.088Z,100564.16
2022-11-05T08:02:44.153Z,100561.44
2022-11-05T08:05:12.487Z,100565.03
2022-11-05T08:07:40.563Z,100565.03
2022-11-05T08:10:09.580Z,100562.47
2022-11-05T08:12:39.278Z,100565.78
2022-11-05T08:15:08.333Z,100567.62
2022-11-05T08:17:36.770Z,100569.56
2022-11-05T08:20:05.674Z,100575.25
2022-11-05T08:22:33.982Z,100568.50
2022-11-05T08:25:06.651Z,100571.22
2022-11-05T08:27:35.144Z,100569.09
2022-11-05T08:30:05.890Z,100574.88
2022-11-05T08:32:34.424Z,100577.94
2022-11-05T08:35:02.677Z,100577.44
2022-11-05T08:37:31.390Z,100582.72
2022-11-05T08:40:00.807Z,100581.97
2022-11-05T08:42:28.982Z,100587.00
2022-11-05T08:44:57.486Z,100593.41
2022-11-05T08:47:27.100Z,100586.78
2022-11-05T08:49:55.287Z,100603.63
2022-11-05T08:52:23.837Z,100605.84
2022-11-05T08:54:52.123Z,100608.84
2022-11-05T08:57:20.442Z,100617.88
2022-11-05T08:59:48.987Z,100612.88
2022-11-05T09:02:17.680Z,100618.28
2022-11-05T09:04:47.468Z,100624.78
2022-11-05T09:07:15.959Z,100627.75
2022-11-05T09:09:44.167Z,100629.09
2022-11-05T09:12:13.225Z,100623.13
2022-11-05T09:14:41.787Z,100627.69
2022-11-05T09:17:17.482Z,100627.72
2022-11-05T09:19:47.473Z,100627.34
2022-11-05T09:22:16.065Z,100626.72
2022-11-05T09:24:44.705Z,100632.97
2022-11-05T09:27:14.664Z,100635.28
2022-11-05T09:29:43.251Z,100639.47
2022-11-05T09:32:12.083Z,100633.16
2022-11-05T09:34:41.718Z,100640.63
2022-11-05T09:37:11.227Z,100644.19
2022-11-05T09:39:39.323Z,100640.19
2022-11-05T09:42:10.549Z,100652.00
2022-11-05T09:44:43.252Z,100653.34
2022-11-05T09:47:16.741Z,100652.53
2022-11-05T09:49:51.199Z,100658.25
2022-11-05T09:52:23.775Z,100661.28
2022-11-05T09:54:54.314Z,100672.22
2022-11-05T09:57:27.207Z,100662.25
2022-11-05T09:59:58.418Z,100657.63
2022-11-05T10:02:30.520Z,100668.44
2022-11-05T10:05:09.408Z,100667.97
2022-11-05T10:07:46.414Z,100679.41
2022-11-05T10:10:28.077Z,100672.19
2022-11-05T10:13:00.387Z,100669.66
2022-11-05T10:15:32.358Z,100662.47
2022-11-05T10:18:07.140Z,100670.16
2022-11-05T10:20:37.918Z,100678.44
2022-11-05T10:23:12.453Z,100676.34
2022-11-05T10:25:44.873Z,100687.19
2022-11-05T10:28:17.871Z,100691.94
2022-11-05T10:30:49.538Z,100689.47
2022-11-05T10:33:28.594Z,100684.25
2022-11-05T10:36:03.497Z,100681.00
2022-11-05T10:38:33.654Z,100674.13
2022-11-05T10:41:18.898Z,100678.34
2022-11-05T10:43:51.016Z,100678.16
2022-11-05T10:46:32.555Z,100677.28
2022-11-05T10:49:15.165Z,100680.44
2022-11-05T10:51:44.601Z,100677.16
2022-11-05T10:54:19.278Z,100686.44
2022-11-05T10:56:47.964Z,100676.22
2022-11-05T10:59:24.431Z,100679.19
2022-11-05T11:02:04.636Z,100682.81
2022-11-05T11:04:37.663Z,100677.50
2022-11-05T11:07:20.598Z,100674.63
2022-11-05T11:09:51.354Z,100677.37
2022-11-05T11:12:25.803Z,100676.00
2022-11-05T11:15:05.208Z,100683.44
2022-11-05T11:17:33.804Z,100676.59
2022-11-05T11:20:22.566Z,100678.53
2022-11-05T11:23:03.232Z,100686.81
2022-11-05T11:25:40.553Z,100674.69
2022-11-05T11:28:19.029Z,100679.78
2022-11-05T11:30:56.172Z,100684.41
2022-11-05T11:33:28.782Z,100682.19
2022-11-05T11:35:57.865Z,100691.69
2022-11-05T11:38:30.258Z,100685.25
2022-11-05T11:41:10.205Z,100684.63
2022-11-05T11:43:42.322Z,100683.53
2022-11-05T11:46:16.577Z,100685.72
2022-11-05T11:48:48.344Z,100683.38
2022-11-05T11:51:21.146Z,100680.00
2022-11-05T11:53:50.827Z,100682.53
2022-11-05T11:56:21.967Z,100676.31
2022-11-05T11:58:52.064Z,100680.09
2022-11-05T12:01:52.140Z,100675.47
2022-11-05T12:04:38.589Z,100676.56
2022-11-05T12:07:18.143Z,100675.09
2022-11-05T12:09:59.316Z,100676.03
2022-11-05T12:12:38.565Z,100667.69
2022-11-05T12:15:26.187Z,100669.72
2022-11-05T12:18:14.323Z,100664.59
2022-11-05T12:21:05.454Z,100660.72
2022-11-05T12:23:58.308Z,100667.81
2022-11-05T12:26:39.187Z,100665.78
2022-11-05T12:29:36.163Z,100664.91
2022-11-05T12:32:28.072Z,100657.37
2022-11-05T12:35:04.879Z,100667.09
2022-11-05T12:37:38.547Z,100666.63
2022-11-05T12:40:30.365Z,100672.13
2022-11-05T12:43:12.073Z,100663.53
2022-11-05T12:45:48.233Z,100661.22
2022-11-05T12:48:35.760Z,100661.84
2022-11-05T12:51:17.850Z,100668.47
2022-11-05T12:53:57.500Z,100663.09
2022-11-05T12:56:32.443Z,100662.09
2022-11-05T12:59:05.448Z,100672.72
2022-11-05T13:01:39.450Z,100675.62
2022-11-05T13:04:17.768Z,100668.53
2022-11-05T13:06:52.480Z,100670.47
2022-11-05T13:09:26.459Z,100672.34
2022-11-05T13:11:57.707Z,100673.41
2022-11-05T13:14:33.688Z,100670.13
2022-11-05T13:17:08.182Z,100667.00
2022-11-05T13:19:41.318Z,100662.09
2022-11-05T13:22:18.568Z,100661.31
2022-11-05T13:24:54.009Z,100667.75
2022-11-05T13:27:46.162Z,100668.88
2022-11-05T13:30:18.412Z,100661.50
2022-11-05T13:32:54.172Z,100665.62
2022-11-05T13:35:27.275Z,100674.69
2022-11-05T13:38:22.081Z,100671.59
2022-11-05T13:41:06.818Z,100674.97
2022-11-05T13:43:49.122Z,100676.66
2022-11-05T13:46:31.123Z,100673.28
2022-11-05T13:49:39.505Z,100681.34
2022-11-05T13:52:33.961Z,100681.81
2022-11-05T13:55:38.583Z,100675.13
2022-11-05T13:58:45.239Z,100678.91
2022-11-05T14:01:23.002Z,100678.09
2022-11-05T14:03:54.226Z,100676.97
2022-11-05T14:06:27.883Z,100670.56
2022-11-05T14:09:00.079Z,100677.19
2022-11-05T14:11:31.451Z,100670.53
2022-11-05T14:14:03.950Z,100682.94
2022-11-05T14:16:49.226Z,100672.94
2022-11-05T14:19:52.780Z,100681.22
2022-11-05T14:22:39.266Z,100678.69
2022-11-05T14:25:55.046Z,100680.56
2022-11-05T14:28:39.927Z,100681.34
2022-11-05T14:31:41.030Z,100683.06
2022-11-05T14:34:22.379Z,100682.56
2022-11-05T14:37:18.257Z,100678.38
2022-11-05T14:39:47.989Z,100680.66
2022-11-05T14:42:19.783Z,100673.31
2022-11-05T14:44:59.300Z,100678.72
2022-11-05T14:47:31.000Z,100681.53
2022-11-05T14:50:03.442Z,100692.25
2022-11-05T14:52:33.365Z,100688.37
2022-11-05T14:55:04.427Z,100692.03
2022-11-05T14:58:18.190Z,100700.19
2022-11-05T15:00:50.528Z,100708.88
2022-11-05T15:04:01.913Z,100708.22
2022-11-05T15:06:33.980Z,100715.28
2022-11-05T15:09:14.598Z,100706.28
2022-11-05T15:11:52.184Z,100717.47
2022-11-05T15:14:29.768Z,100712.09
2022-11-05T15:17:03.584Z,100712.59
2022-11-05T15:19:37.034Z,100715.44
2022-11-05T15:22:12.050Z,100722.34
2022-11-05T15:24:43.589Z,100716.00
2022-11-05T15:27:21.910Z,100722.13
2022-11-05T15:29:50.693Z,100724.53
2022-11-05T15:32:24.023Z,100726.28
2022-11-05T15:34:54.016Z,100720.78
2022-11-05T15:37:24.784Z,100724.38
2022-11-05T15:39:55.197Z,100719.94
2022-11-05T15:42:26.559Z,100722.53
2022-11-05T15:44:56.951Z,100732.37
2022-11-05T15:47:26.546Z,100734.00
2022-11-05T15:49:57.607Z,100745.25
2022-11-05T15:52:33.470Z,100739.75
2022-11-05T15:55:20.286Z,100745.75
2022-11-05T15:57:51.858Z,100756.31
2022-11-05T16:00:22.698Z,100758.44
2022-11-05T16:02:55.675Z,100759.47
2022-11-05T16:05:27.319Z,100760.31
2022-11-05T16:07:59.799Z,100762.84
2022-11-05T16:10:31.246Z,100763.00
2022-11-05T16:13:42.029Z,100763.84
2022-11-05T16:16:27.298Z,100766.31
2022-11-05T16:18:56.193Z,100761.97
2022-11-05T16:21:24.737Z,100758.31
2022-11-05T16:23:58.091Z,100766.69
2022-11-05T16:29:29.966Z,100762.53
2022-11-05T16:32:01.787Z,100766.63
2022-11-05T16:34:35.274Z,100762.75
2022-11-05T16:37:05.120Z,100765.00
2022-11-05T16:39:33.988Z,100761.81
2022-11-05T16:42:02.290Z,100766.63
2022-11-05T16:44:30.804Z,100772.31
2022-11-05T16:47:00.385Z,100771.75
2022-11-05T16:49:28.559Z,100775.56
2022-11-05T16:51:56.956Z,100777.62
2022-11-05T16:54:25.120Z,100785.09
2022-11-05T16:56:53.300Z,100785.47
2022-11-05T16:59:21.767Z,100784.97
2022-11-05T17:01:55.481Z,100782.59
2022-11-05T17:04:25.788Z,100788.25
2022-11-05T17:06:53.996Z,100789.56
2022-11-05T17:09:22.177Z,100786.34
2022-11-05T17:11:50.672Z,100799.00
2022-11-05T17:14:18.842Z,100801.28
2022-11-05T17:16:47.029Z,100810.44
2022-11-05T17:19:16.932Z,100808.97
2022-11-05T17:21:46.763Z,100810.97
2022-11-05T17:24:15.014Z,100813.91
2022-11-05T17:26:43.616Z,100810.81
2022-11-05T17:29:11.919Z,100812.00
2022-11-05T17:31:40.857Z,100821.25
2022-11-05T17:34:10.655Z,100825.12
2022-11-05T17:36:38.978Z,100826.47
2022-11-05T17:39:08.588Z,100831.19
2022-11-05T17:41:37.199Z,100829.53
2022-11-05T17:44:05.663Z,100826.03
2022-11-05T17:46:34.157Z,100828.97
2022-11-05T17:49:02.850Z,100831.69
2022-11-05T17:51:32.786Z,100835.28
2022-11-05T17:54:01.164Z,100831.84
2022-11-05T17:56:34.907Z,100825.53
2022-11-05T17:59:04.499Z,100826.53
2022-11-05T18:01:35.808Z,100823.03
2022-11-05T18:04:08.907Z,100822.25
2022-11-05T18:06:37.844Z,100825.00
2022-11-05T18:09:07.621Z,100831.47
2022-11-05T18:11:37.954Z,100834.50
2022-11-05T18:14:07.456Z,100834.00
2022-11-05T18:16:36.627Z,100832.28
2022-11-05T18:19:05.516Z,100835.25
2022-11-05T18:21:34.249Z,100831.06
2022-11-05T18:24:04.836Z,100840.91
2022-11-05T18:26:33.698Z,100832.94
2022-11-05T18:29:05.678Z,100841.84
2022-11-05T18:31:34.077Z,100835.59
2022-11-05T18:34:02.976Z,100835.44
2022-11-05T18:36:33.187Z,100833.53
2022-11-05T18:39:03.615Z,100832.59
2022-11-05T18:41:32.710Z,100836.03
2022-11-05T18:44:01.694Z,100829.81
2022-11-05T18:49:21.894Z,100834.16
2022-11-05T18:51:50.576Z,100833.31
2022-11-05T18:54:19.035Z,100835.03
2022-11-05T18:56:47.731Z,100835.88
2022-11-05T19:02:09.444Z,100837.91
2022-11-05T19:04:38.691Z,100840.91
2022-11-05T19:07:08.919Z,100841.13
2022-11-05T19:09:39.257Z,100842.62
2022-11-05T19:12:09.073Z,100836.87
2022-11-05T19:14:37.926Z,100841.56
2022-11-05T19:17:06.155Z,100847.06
2022-11-05T19:19:36.051Z,100834.16
2022-11-05T19:22:05.053Z,100832.59
2022-11-05T19:24:33.430Z,100833.44
2022-11-05T19:27:02.017Z,100835.31
2022-11-05T19:29:30.503Z,100840.78
2022-11-05T19:31:58.835Z,100837.37
2022-11-05T19:34:27.370Z,100829.41
2022-11-05T19:36:57.124Z,100837.37
2022-11-05T19:39:25.279Z,100835.50
2022-11-05T19:41:56.538Z,100838.13
2022-11-05T19:44:27.293Z,100833.69
2022-11-05T19:46:55.795Z,100831.81
2022-11-05T19:49:24.260Z,100840.53
2022-11-05T19:51:52.436Z,100839.69
2022-11-05T19:54:22.226Z,100844.97
2022-11-05T19:56:51.126Z,100849.34
2022-11-05T19:59:19.349Z,100842.16
2022-11-05T20:01:48.013Z,100846.56
2022-11-05T20:04:16.519Z,100850.06
2022-11-05T20:06:44.991Z,100858.06
2022-11-05T20:09:21.706Z,100864.28
2022-11-05T20:11:54.277Z,100863.31
2022-11-05T20:14:23.841Z,100862.50
2022-11-05T20:16:52.939Z,100864.25
2022-11-05T20:19:22.875Z,100869.59
2022-11-05T20:21:51.155Z,100862.59
2022-11-05T20:24:24.645Z,100867.03
2022-11-05T20:26:56.828Z,100860.78
2022-11-05T20:29:33.676Z,100872.25
2022-11-05T20:32:03.726Z,100869.75
2022-11-05T20:34:33.823Z,100870.00
2022-11-05T20:37:02.346Z,100876.44
2022-11-05T20:39:30.656Z,100877.56
2022-11-05T20:42:01.431Z,100882.97
2022-11-05T20:44:29.837Z,100877.91
2022-11-05T20:46:58.104Z,100874.50
2022-11-05T20:49:26.718Z,100873.69
2022-11-05T20:51:55.500Z,100868.47
2022-11-05T20:54:24.285Z,100862.31
2022-11-05T20:56:52.684Z,100868.72
2022-11-05T20:59:22.388Z,100870.66
2022-11-05T21:01:51.931Z,100870.66
2022-11-05T21:04:20.474Z,100872.50
2022-11-05T21:06:48.624Z,100877.97
2022-11-05T21:09:16.873Z,100872.66
2022-11-05T21:12:02.887Z,100873.53
2022-11-05T21:14:32.484Z,100872.59
2022-11-05T21:17:00.981Z,100880.59
2022-11-05T21:19:31.161Z,100877.97
2022-11-05T21:21:59.391Z,100878.91
2022-11-05T21:24:28.041Z,100873.69
2022-11-05T21:26:56.515Z,100879.84
2022-11-05T21:29:24.714Z,100873.75
2022-11-05T21:31:54.819Z,100879.97
2022-11-05T21:34:23.098Z,100875.69
2022-11-05T21:36:51.583Z,100879.34
2022-11-05T21:39:20.328Z,100879.56
2022-11-05T21:41:48.636Z,100879.00
2022-11-05T21:44:16.966Z,100885.44
2022-11-05T21:46:45.515Z,100889.09
2022-11-05T21:49:15.660Z,100884.72
2022-11-05T21:52:01.366Z,100882.16
2022-11-05T21:54:47.391Z,100884.94
2022-11-05T21:57:34.549Z,100872.69
2022-11-05T22:00:05.867Z,100873.63
2022-11-05T22:02:34.504Z,100866.63
2022-11-05T22:05:06.431Z,100866.63
2022-11-05T22:07:36.760Z,100872.78
2022-11-05T22:10:13.191Z,100874.66
2022-11-05T22:12:44.513Z,100871.16
2022-11-05T22:15:13.292Z,100872.84
2022-11-05T22:17:46.533Z,100869.28
2022-11-05T22:20:17.894Z,100872.69
2022-11-05T22:22:46.183Z,100873.44
2022-11-05T22:25:15.024Z,100873.34
2022-11-05T22:27:43.942Z,100865.28
2022-11-05T22:30:13.817Z,100872.28
2022-11-05T22:32:42.046Z,100876.56
2022-11-05T22:35:11.327Z,100868.56
2022-11-05T22:37:41.093Z,100865.84
2022-11-05T22:40:10.149Z,100869.34
2022-11-05T22:42:38.702Z,100870.28
2022-11-05T22:45:07.899Z,100858.84
2022-11-05T22:47:36.231Z,100864.06
2022-11-05T22:50:05.920Z,100863.13
2022-11-05T22:52:34.095Z,100863.13
2022-11-05T22:55:06.135Z,100868.41
2022-11-05T22:57:34.658Z,100857.91
2022-11-05T23:00:04.731Z,100872.06
2022-11-05T23:02:33.095Z,100874.63
2022-11-05T23:05:01.663Z,100871.13
2022-11-05T23:07:47.341Z,100878.06
2022-11-05T23:10:35.004Z,100870.81
2022-11-05T23:13:04.309Z,100866.25
2022-11-05T23:15:50.221Z,100859.03
2022-11-05T23:18:36.087Z,100857.94
2022-11-05T23:21:23.313Z,100858.66
2022-11-05T23:24:06.648Z,100862.84
2022-11-05T23:26:51.201Z,100866.28
2022-11-05T23:29:20.370Z,100867.09
2022-11-05T23:32:09.270Z,100863.34
2022-11-05T23:34:38.016Z,100861.47
2022-11-05T23:37:24.352Z,100863.19
2022-11-05T23:39:52.649Z,100867.53
2022-11-05T23:42:39.808Z,100865.75
2022-11-05T23:45:26.515Z,100859.59
2022-11-05T23:48:13.208Z,100867.50
2022-11-05T23:50:42.469Z,100866.56
2022-11-05T23:53:11.034Z,100867.41
2022-11-05T23:55:40.533Z,100871.00
2022-11-05T23:58:10.920Z,100866.63
